Time;durP1;ratioP1;P1;durP2;ratioP2;P2;SDS_P1;SDS_P2;PMS_P1;PMS_P2;Temp;Humidity;BMP_temperature;BMP_pressure;BME280_temperature;BME280_humidity;BME280_pressure;Samples;Min_cycle;Max_cycle;Signal;HPM_P1;HPM_P2
2023/06/23 00:00:43;;;;;;;0.60;0.60;;;17.70;99.90;;;;;;5013803;28;20651;-71
2023/06/23 00:03:09;;;;;;;0.57;0.50;;;17.70;99.90;;;;;;5013752;28;20407;-69
2023/06/23 00:05:35;;;;;;;0.67;0.67;;;17.80;99.90;;;;;;5013913;28;20402;-70
2023/06/23 00:08:01;;;;;;;0.30;0.30;;;17.80;99.90;;;;;;5013630;28;20207;-71
2023/06/23 00:10:26;;;;;;;0.40;0.40;;;17.90;99.90;;;;;;5013721;28;20452;-71
2023/06/23 00:12:52;;;;;;;0.70;0.70;;;17.90;99.90;;;;;;5013515;28;20282;-70
2023/06/23 00:15:18;;;;;;;0.50;0.43;;;17.90;99.90;;;;;;5013743;28;20630;-71
2023/06/23 00:17:47;;;;;;;0.40;0.40;;;17.80;99.90;;;;;;5013618;28;20545;-71
2023/06/23 00:20:13;;;;;;;0.40;0.40;;;17.80;99.90;;;;;;5014191;28;20700;-70
2023/06/23 00:22:43;;;;;;;0.30;0.30;;;17.80;99.90;;;;;;5013422;28;20775;-72
2023/06/23 00:25:10;;;;;;;0.40;0.40;;;17.80;99.90;;;;;;5013743;28;20431;-69
2023/06/23 00:27:39;;;;;;;0.30;0.30;;;17.80;99.90;;;;;;5013688;28;20435;-71
2023/06/23 00:30:05;;;;;;;0.50;0.50;;;17.80;99.90;;;;;;5013538;28;20438;-71
2023/06/23 00:32:30;;;;;;;0.70;0.40;;;17.80;99.90;;;;;;5013287;28;20811;-70
2023/06/23 00:34:56;;;;;;;0.30;0.30;;;17.70;99.90;;;;;;5013785;28;20485;-72
2023/06/23 00:37:22;;;;;;;0.50;0.50;;;17.70;99.90;;;;;;5015195;28;20171;-71
2023/06/23 00:39:48;;;;;;;0.40;0.40;;;17.80;99.90;;;;;;5017559;28;20172;-72
2023/06/23 00:42:13;;;;;;;0.50;0.40;;;17.80;99.90;;;;;;5017317;28;20187;-70
2023/06/23 00:44:39;;;;;;;0.30;0.30;;;17.60;99.90;;;;;;5017488;28;20402;-71
2023/06/23 00:47:05;;;;;;;0.30;0.30;;;17.50;99.90;;;;;;5017933;28;20177;-70
2023/06/23 00:49:31;;;;;;;0.30;0.30;;;17.50;99.90;;;;;;5017273;28;20195;-70
2023/06/23 00:52:01;;;;;;;0.50;0.50;;;17.40;99.90;;;;;;5016931;28;20950;-71
2023/06/23 00:54:28;;;;;;;0.30;0.30;;;17.40;99.90;;;;;;5017296;28;20533;-69
2023/06/23 00:56:58;;;;;;;0.30;0.30;;;17.40;99.90;;;;;;5017244;28;20396;-70
2023/06/23 00:59:28;;;;;;;0.30;0.30;;;17.30;99.90;;;;;;5017074;28;20435;-70
2023/06/23 01:02:01;;;;;;;0.30;0.30;;;17.30;99.90;;;;;;5016892;28;20410;-70
2023/06/23 01:04:34;;;;;;;0.30;0.30;;;17.40;99.90;;;;;;5017257;28;20782;-72
2023/06/23 01:07:22;;;;;;;0.30;0.30;;;17.40;99.90;;;;;;5017123;28;20402;-71
2023/06/23 01:10:03;;;;;;;0.40;0.40;;;17.40;99.90;;;;;;5016870;28;20434;-72
2023/06/23 01:12:59;;;;;;;0.30;0.30;;;17.20;99.90;;;;;;5016767;28;20450;-70
2023/06/23 01:15:39;;;;;;;0.30;0.30;;;17.20;99.90;;;;;;5016878;28;20405;-72
2023/06/23 01:18:40;;;;;;;0.30;0.30;;;17.30;99.90;;;;;;5016869;28;20422;-72
2023/06/23 01:21:10;;;;;;;0.30;0.30;;;17.30;99.90;;;;;;5016605;28;20378;-71
2023/06/23 01:23:46;;;;;;;0.30;0.30;;;17.40;99.90;;;;;;5016631;28;20409;-71
2023/06/23 01:26:31;;;;;;;0.67;0.67;;;17.30;99.90;;;;;;5016738;28;20390;-71
2023/06/23 01:29:08;;;;;;;0.30;0.30;;;17.40;99.90;;;;;;5016566;28;20427;-70
2023/06/23 01:31:45;;;;;;;0.30;0.30;;;17.40;99.90;;;;;;5016435;28;20405;-72
2023/06/23 01:34:23;;;;;;;0.30;0.30;;;17.30;99.90;;;;;;5016509;28;20399;-72
2023/06/23 01:37:01;;;;;;;0.30;0.30;;;17.30;99.90;;;;;;4998940;28;20415;-72
2023/06/23 01:39:30;;;;;;;14.10;0.97;;;17.30;99.90;;;;;;5016390;28;20445;-72
2023/06/23 01:42:09;;;;;;;0.30;0.30;;;17.30;99.90;;;;;;5016288;28;20894;-70
2023/06/23 01:44:38;;;;;;;0.40;0.40;;;17.30;99.90;;;;;;5016463;28;20497;-70
2023/06/23 01:47:15;;;;;;;0.40;0.40;;;17.30;99.90;;;;;;5016549;28;20399;-72
2023/06/23 01:49:42;;;;;;;1.13;0.90;;;17.30;99.90;;;;;;5016327;28;20418;-69
2023/06/23 01:52:08;;;;;;;0.50;0.50;;;17.30;99.90;;;;;;5015926;28;20850;-71
2023/06/23 01:54:38;;;;;;;0.60;0.60;;;17.30;99.90;;;;;;5016101;28;20398;-71
2023/06/23 01:57:06;;;;;;;0.30;0.30;;;17.30;99.90;;;;;;5016299;28;20481;-71
2023/06/23 01:59:35;;;;;;;0.50;0.50;;;17.20;99.90;;;;;;5016047;28;20935;-71
2023/06/23 02:02:03;;;;;;;2.50;2.33;;;17.30;99.90;;;;;;5015918;28;20410;-72
2023/06/23 02:04:30;;;;;;;0.40;0.40;;;17.20;99.90;;;;;;5016041;28;20417;-69
2023/06/23 02:06:56;;;;;;;1.07;0.77;;;17.20;99.90;;;;;;5016061;28;20842;-69
2023/06/23 02:09:25;;;;;;;0.77;0.77;;;17.20;99.90;;;;;;5015704;28;20457;-70
2023/06/23 02:11:52;;;;;;;1.13;1.03;;;17.20;99.90;;;;;;5015628;28;20411;-71
2023/06/23 02:14:19;;;;;;;0.60;0.60;;;17.20;99.90;;;;;;5015832;28;20406;-70
2023/06/23 02:16:46;;;;;;;1.37;1.37;;;17.20;99.90;;;;;;5015899;28;20402;-70
2023/06/23 02:19:13;;;;;;;2.00;0.70;;;17.10;99.90;;;;;;5015642;28;20434;-70
2023/06/23 02:21:41;;;;;;;1.63;1.53;;;17.00;99.90;;;;;;5015555;28;20414;-70
2023/06/23 02:24:07;;;;;;;1.87;0.80;;;17.00;99.90;;;;;;5015604;28;20767;-70
2023/06/23 02:26:35;;;;;;;2.43;1.80;;;17.00;99.90;;;;;;5015522;28;20407;-72
2023/06/23 02:29:03;;;;;;;1.30;1.20;;;17.10;99.90;;;;;;5015681;28;20790;-72
2023/06/23 02:31:28;;;;;;;0.90;0.70;;;17.00;99.90;;;;;;5015361;28;20815;-69
2023/06/23 02:33:54;;;;;;;4.60;4.20;;;17.00;99.90;;;;;;5015479;28;20474;-71
2023/06/23 02:36:22;;;;;;;2.37;2.17;;;17.00;99.90;;;;;;5015344;28;20633;-69
2023/06/23 02:38:54;;;;;;;4.00;2.17;;;17.00;99.90;;;;;;5015373;28;20433;-70
2023/06/23 02:41:21;;;;;;;2.40;1.87;;;16.90;99.90;;;;;;5015180;28;20415;-71
2023/06/23 02:43:53;;;;;;;1.43;1.33;;;16.80;99.90;;;;;;5015352;28;20411;-72
2023/06/23 02:46:26;;;;;;;2.13;1.97;;;16.80;99.90;;;;;;5015345;28;20759;-70
2023/06/23 02:48:56;;;;;;;1.23;1.00;;;16.80;99.90;;;;;;5015176;28;20794;-72
2023/06/23 02:51:24;;;;;;;0.60;0.60;;;16.70;99.90;;;;;;5015120;28;20414;-71
2023/06/23 02:54:05;;;;;;;1.97;1.87;;;16.80;99.90;;;;;;5015030;28;20454;-70
2023/06/23 02:56:34;;;;;;;1.40;1.00;;;16.70;99.90;;;;;;5015195;28;20390;-71
2023/06/23 02:59:06;;;;;;;6.70;4.30;;;16.70;99.90;;;;;;5014653;28;20457;-72
2023/06/23 03:01:39;;;;;;;2.90;2.70;;;16.60;99.90;;;;;;5014529;28;20485;-72
2023/06/23 03:04:04;;;;;;;1.80;1.53;;;16.50;99.90;;;;;;4997306;28;20510;-68
2023/06/23 03:06:34;;;;;;;5.03;2.00;;;16.50;99.90;;;;;;5014902;28;20934;-70
2023/06/23 03:09:02;;;;;;;5.77;3.53;;;16.50;99.90;;;;;;5014566;28;20457;-72
2023/06/23 03:11:29;;;;;;;3.70;2.73;;;16.60;99.90;;;;;;5014602;28;20410;-70
2023/06/23 03:13:54;;;;;;;2.60;2.40;;;16.60;99.90;;;;;;5014683;28;20549;-71
2023/06/23 03:16:32;;;;;;;4.17;3.87;;;16.70;99.90;;;;;;5014621;28;20489;-72
2023/06/23 03:19:12;;;;;;;4.07;3.47;;;16.70;99.90;;;;;;5014650;28;20529;-71
2023/06/23 03:21:39;;;;;;;3.23;3.00;;;16.60;99.90;;;;;;5014425;28;20391;-70
2023/06/23 03:24:08;;;;;;;3.83;3.33;;;16.50;99.90;;;;;;5014594;28;20425;-69
2023/06/23 03:26:40;;;;;;;3.73;3.23;;;16.50;99.90;;;;;;5014385;28;20430;-72
2023/06/23 03:29:08;;;;;;;4.07;3.80;;;16.50;99.90;;;;;;5013762;28;20423;-70
2023/06/23 03:31:37;;;;;;;2.83;2.63;;;16.50;99.90;;;;;;5014505;28;20540;-70
2023/06/23 03:34:03;;;;;;;3.13;2.93;;;16.40;99.90;;;;;;5014222;28;20815;-70
2023/06/23 03:36:29;;;;;;;2.23;2.10;;;;;;;;;;5014348;28;20387;-71
2023/06/23 03:38:59;;;;;;;6.87;5.40;;;16.40;99.90;;;;;;5014147;28;20962;-72
2023/06/23 03:41:29;;;;;;;6.93;4.50;;;16.40;99.90;;;;;;5014073;28;20780;-71
2023/06/23 03:44:05;;;;;;;2.97;2.73;;;16.30;99.90;;;;;;5013982;28;20443;-70
2023/06/23 03:46:51;;;;;;;4.60;4.10;;;16.30;99.90;;;;;;5014100;28;20406;-69
2023/06/23 03:49:20;;;;;;;6.63;4.47;;;16.20;99.90;;;;;;5014173;28;20426;-71
2023/06/23 03:51:48;;;;;;;4.73;4.33;;;16.20;99.90;;;;;;5013929;28;20815;-71
2023/06/23 03:54:16;;;;;;;3.63;3.40;;;16.40;99.90;;;;;;5014102;28;20410;-70
2023/06/23 03:56:43;;;;;;;8.73;5.20;;;16.40;99.90;;;;;;5013926;28;20481;-71
2023/06/23 03:59:11;;;;;;;3.43;3.13;;;16.40;99.90;;;;;;5013882;28;20496;-71
2023/06/23 04:01:38;;;;;;;5.23;3.77;;;16.50;99.90;;;;;;5013981;28;20929;-72
2023/06/23 04:04:06;;;;;;;5.17;4.20;;;16.40;99.90;;;;;;5014032;28;20450;-70
2023/06/23 04:06:34;;;;;;;6.07;5.60;;;16.40;99.90;;;;;;5013929;28;20410;-71
2023/06/23 04:09:02;;;;;;;7.70;6.80;;;16.30;99.90;;;;;;5013652;28;20473;-71
2023/06/23 04:11:28;;;;;;;5.17;4.67;;;16.30;99.90;;;;;;5012656;28;20433;-70
2023/06/23 04:13:58;;;;;;;4.17;3.87;;;16.30;99.90;;;;;;5013798;28;20581;-72
2023/06/23 04:16:25;;;;;;;5.03;4.63;;;16.30;99.90;;;;;;5013782;28;20407;-69
2023/06/23 04:18:53;;;;;;;10.80;5.67;;;16.20;99.90;;;;;;5013730;28;20423;-70
2023/06/23 04:21:21;;;;;;;13.17;7.20;;;16.30;99.90;;;;;;5013430;28;20406;-71
2023/06/23 04:23:47;;;;;;;11.70;5.77;;;16.20;99.90;;;;;;5013623;28;20468;-72
2023/06/23 04:26:14;;;;;;;4.97;4.33;;;16.20;99.90;;;;;;5013570;28;20839;-71
2023/06/23 04:28:43;;;;;;;5.93;3.83;;;16.20;99.90;;;;;;5013502;28;20458;-71
2023/06/23 04:31:10;;;;;;;3.70;3.30;;;16.30;99.90;;;;;;5013475;28;20903;-70
2023/06/23 04:33:37;;;;;;;5.30;3.93;;;16.40;99.90;;;;;;5013606;28;20466;-71
2023/06/23 04:36:18;;;;;;;5.87;4.17;;;16.40;99.90;;;;;;5013555;28;20783;-70
2023/06/23 04:38:53;;;;;;;4.97;4.57;;;16.50;99.90;;;;;;5013467;28;20418;-71
2023/06/23 04:41:21;;;;;;;3.90;3.07;;;16.60;99.90;;;;;;5013484;28;20418;-70
2023/06/23 04:43:51;;;;;;;4.23;2.87;;;16.60;99.90;;;;;;5013601;28;20839;-71
2023/06/23 04:46:24;;;;;;;5.33;4.67;;;16.70;99.90;;;;;;5013581;28;20459;-72
2023/06/23 04:48:56;;;;;;;7.07;6.13;;;16.80;99.90;;;;;;5013323;28;20433;-69
2023/06/23 04:51:28;;;;;;;3.13;2.93;;;16.80;99.90;;;;;;5013227;28;20418;-72
2023/06/23 04:54:00;;;;;;;4.80;2.53;;;16.80;99.90;;;;;;5013442;28;20850;-71
2023/06/23 04:56:31;;;;;;;5.40;4.90;;;16.80;99.90;;;;;;5013595;28;20395;-70
2023/06/23 04:59:02;;;;;;;3.17;2.97;;;16.90;99.90;;;;;;5013163;28;20434;-70
2023/06/23 05:01:30;;;;;;;3.63;3.33;;;17.00;99.90;;;;;;5013271;28;20413;-70
2023/06/23 05:04:00;;;;;;;5.23;4.53;;;17.10;99.90;;;;;;5013310;28;20774;-70
2023/06/23 05:06:27;;;;;;;6.03;4.30;;;17.20;99.90;;;;;;5013142;28;20469;-71
2023/06/23 05:08:54;;;;;;;2.73;2.53;;;17.20;99.90;;;;;;5012968;28;20549;-70
2023/06/23 05:11:22;;;;;;;4.37;3.97;;;17.10;99.90;;;;;;5012955;28;20415;-70
2023/06/23 05:13:48;;;;;;;4.07;3.37;;;17.10;99.90;;;;;;5013044;28;20954;-72
2023/06/23 05:16:16;;;;;;;6.30;5.90;;;17.10;99.90;;;;;;5013163;28;20410;-69
2023/06/23 05:18:45;;;;;;;6.43;5.10;;;17.10;99.90;;;;;;5013081;28;20529;-70
2023/06/23 05:21:13;;;;;;;6.33;5.70;;;16.90;99.90;;;;;;5012998;28;20418;-72
2023/06/23 05:23:41;;;;;;;5.70;5.20;;;17.00;99.90;;;;;;5015321;28;20993;-70
2023/06/23 05:26:12;;;;;;;5.60;5.10;;;17.10;99.90;;;;;;5017281;28;20480;-71
2023/06/23 05:28:39;;;;;;;7.77;7.03;;;17.30;99.90;;;;;;5016784;28;20466;-70
2023/06/23 05:31:07;;;;;;;9.20;5.87;;;17.40;99.90;;;;;;5016598;28;20410;-71
2023/06/23 05:33:36;;;;;;;5.60;3.90;;;17.50;99.90;;;;;;5016731;28;20458;-71
2023/06/23 05:36:04;;;;;;;7.77;5.67;;;17.50;99.90;;;;;;5016497;28;20841;-69
2023/06/23 05:38:30;;;;;;;8.40;7.70;;;17.60;99.90;;;;;;5016557;28;20423;-71
2023/06/23 05:40:56;;;;;;;5.80;4.43;;;17.60;99.90;;;;;;5016493;28;20896;-70
2023/06/23 05:43:22;;;;;;;8.70;7.93;;;17.60;99.90;;;;;;5016441;28;20771;-70
2023/06/23 05:45:51;;;;;;;7.17;4.67;;;17.50;99.90;;;;;;5016358;28;20402;-71
2023/06/23 05:48:53;;;;;;;6.47;5.83;;;17.50;99.90;;;;;;5016404;28;20447;-71
2023/06/23 05:51:25;;;;;;;6.20;5.70;;;17.60;99.90;;;;;;4936704;29;20796;-71
2023/06/23 05:53:58;;;;;;;5.67;5.20;;;17.70;99.90;;;;;;5004028;28;20832;-72
2023/06/23 05:56:35;;;;;;;5.00;4.40;;;17.70;99.90;;;;;;5016296;28;20493;-71
2023/06/23 05:59:06;;;;;;;7.00;4.93;;;17.60;99.90;;;;;;5016014;28;20434;-71
2023/06/23 06:01:36;;;;;;;6.23;3.67;;;17.50;99.90;;;;;;5016142;28;20868;-70
2023/06/23 06:04:08;;;;;;;7.63;6.90;;;17.50;99.90;;;;;;5016046;28;20553;-72
2023/06/23 06:06:36;;;;;;;5.50;4.60;;;17.50;99.90;;;;;;5016266;28;20406;-70
2023/06/23 06:09:03;;;;;;;5.60;5.00;;;17.60;99.90;;;;;;5015751;28;20967;-70
2023/06/23 06:11:31;;;;;;;8.57;7.67;;;17.70;99.90;;;;;;5015795;28;20817;-72
2023/06/23 06:13:59;;;;;;;3.73;3.53;;;17.80;99.90;;;;;;5015687;28;20545;-72
2023/06/23 06:16:25;;;;;;;6.80;5.03;;;17.90;99.90;;;;;;5015998;28;20497;-70
2023/06/23 06:18:53;;;;;;;4.53;4.10;;;18.00;99.90;;;;;;5015651;28;20426;-71
2023/06/23 06:21:20;;;;;;;4.37;4.07;;;18.10;99.90;;;;;;5015648;28;20410;-70
2023/06/23 06:23:49;;;;;;;7.70;6.10;;;18.10;99.90;;;;;;5015812;28;20415;-69
2023/06/23 06:26:17;;;;;;;6.20;4.63;;;18.10;99.90;;;;;;5015480;28;20422;-71
2023/06/23 06:28:45;;;;;;;5.37;4.60;;;18.20;99.90;;;;;;5015584;28;20500;-72
2023/06/23 06:31:12;;;;;;;7.37;4.67;;;18.30;99.90;;;;;;5015536;28;20434;-69
2023/06/23 06:33:41;;;;;;;4.80;4.30;;;18.30;99.90;;;;;;5015279;28;20534;-70
2023/06/23 06:36:08;;;;;;;5.63;5.13;;;18.50;99.90;;;;;;5014615;28;20409;-71
2023/06/23 06:38:37;;;;;;;5.03;4.53;;;18.80;99.90;;;;;;5015331;28;20441;-72
2023/06/23 06:41:06;;;;;;;3.73;3.53;;;18.80;99.90;;;;;;5015068;28;20466;-71
2023/06/23 06:43:36;;;;;;;4.97;4.67;;;19.00;99.90;;;;;;5015263;28;20979;-72
2023/06/23 06:46:04;;;;;;;6.27;5.67;;;19.30;99.90;;;;;;5015193;28;20464;-72
2023/06/23 06:48:31;;;;;;;4.80;4.30;;;19.80;99.90;;;;;;5015396;28;20446;-72
2023/06/23 06:50:57;;;;;;;5.50;4.83;;;20.40;99.90;;;;;;5015134;28;20554;-70
2023/06/23 06:53:24;;;;;;;5.27;4.87;;;20.70;99.80;;;;;;5015270;28;20921;-70
2023/06/23 06:55:51;;;;;;;3.63;3.27;;;20.40;99.30;;;;;;5015146;28;20176;-69
2023/06/23 06:58:17;;;;;;;6.77;4.07;;;20.20;98.70;;;;;;5015120;28;20463;-70
2023/06/23 07:00:43;;;;;;;4.13;3.53;;;20.20;99.20;;;;;;5015208;28;20457;-70
2023/06/23 07:03:11;;;;;;;3.27;2.73;;;20.40;99.30;;;;;;5014911;28;20409;-72
2023/06/23 07:05:36;;;;;;;4.27;3.90;;;20.20;98.50;;;;;;5015170;28;20183;-70
2023/06/23 07:08:03;;;;;;;6.23;4.10;;;20.20;98.90;;;;;;5014602;28;20538;-72
2023/06/23 07:10:29;;;;;;;5.70;5.20;;;20.10;99.00;;;;;;5015112;28;20184;-70
2023/06/23 07:12:55;;;;;;;4.43;4.00;;;20.00;99.30;;;;;;5014538;28;20510;-71
2023/06/23 07:15:20;;;;;;;2.70;2.50;;;20.10;99.70;;;;;;5014928;28;20469;-72
2023/06/23 07:17:46;;;;;;;4.27;3.80;;;20.00;98.40;;;;;;5014641;28;20207;-70
2023/06/23 07:20:12;;;;;;;33.83;3.10;;;20.00;99.00;;;;;;5014773;28;20551;-72
2023/06/23 07:22:37;;;;;;;4.10;3.77;;;20.20;99.90;;;;;;5014330;28;20262;-69
2023/06/23 07:25:03;;;;;;;4.43;4.00;;;20.60;99.90;;;;;;5014678;28;20301;-70
2023/06/23 07:27:29;;;;;;;2.93;2.73;;;21.10;99.90;;;;;;5014563;28;20228;-72
2023/06/23 07:29:55;;;;;;;3.23;3.00;;;21.20;96.70;;;;;;5014419;28;20414;-71
2023/06/23 07:32:20;;;;;;;3.50;3.03;;;21.70;96.40;;;;;;5014223;28;20624;-72
2023/06/23 07:34:46;;;;;;;2.90;2.60;;;22.60;97.30;;;;;;5014428;28;20206;-70
2023/06/23 07:37:11;;;;;;;4.30;2.73;;;24.10;99.90;;;;;;5014113;28;20229;-72
2023/06/23 07:39:37;;;;;;;1.77;1.67;;;24.00;93.20;;;;;;5014262;28;20175;-71
2023/06/23 07:42:04;;;;;;;2.13;2.00;;;24.30;92.40;;;;;;5014337;28;20534;-72
2023/06/23 07:44:31;;;;;;;4.00;3.60;;;24.30;91.60;;;;;;5014264;28;20392;-71
2023/06/23 07:46:58;;;;;;;3.57;1.70;;;24.30;91.70;;;;;;5014049;28;20433;-72
2023/06/23 07:49:23;;;;;;;4.07;3.37;;;24.10;90.40;;;;;;5014022;28;20461;-72
2023/06/23 07:51:49;;;;;;;2.87;2.60;;;24.70;92.20;;;;;;5013777;28;20766;-72
2023/06/23 07:54:15;;;;;;;1.63;1.33;;;25.70;91.00;;;;;;5014059;28;20195;-71
2023/06/23 07:56:40;;;;;;;3.03;2.73;;;25.80;85.80;;;;;;5014067;28;20175;-70
2023/06/23 07:59:06;;;;;;;2.20;1.73;;;25.50;86.20;;;;;;5013926;28;20191;-71
2023/06/23 08:01:32;;;;;;;3.10;2.10;;;25.00;89.60;;;;;;5013901;28;20176;-73
2023/06/23 08:03:58;;;;;;;3.53;2.10;;;;;;;;;;5014002;28;20255;-72
2023/06/23 08:06:23;;;;;;;1.93;1.83;;;24.60;91.30;;;;;;4996356;28;20631;-72
2023/06/23 08:08:52;;;;;;;1.47;1.37;;;25.50;89.10;;;;;;5013608;28;20500;-71
2023/06/23 08:11:18;;;;;;;2.03;1.83;;;25.70;86.00;;;;;;5013606;28;20257;-72
2023/06/23 08:13:44;;;;;;;2.80;2.17;;;25.50;84.60;;;;;;5013796;28;20512;-70
2023/06/23 08:16:10;;;;;;;3.33;3.03;;;25.30;87.30;;;;;;5013800;28;20398;-72
2023/06/23 08:18:36;;;;;;;2.47;2.23;;;25.00;84.60;;;;;;5013876;28;20942;-70
2023/06/23 08:21:03;;;;;;;3.20;2.87;;;24.50;85.40;;;;;;5013430;28;20222;-72
2023/06/23 08:23:29;;;;;;;2.67;2.00;;;24.00;89.30;;;;;;5013613;28;20494;-72
2023/06/23 08:25:54;;;;;;;3.30;2.10;;;24.20;90.50;;;;;;5013671;28;20408;-73
2023/06/23 08:28:20;;;;;;;2.30;1.57;;;24.70;90.20;;;;;;5013561;28;20505;-72
2023/06/23 08:30:46;;;;;;;1.97;1.30;;;25.40;85.00;;;;;;5013580;28;20179;-72
2023/06/23 08:33:12;;;;;;;3.77;3.47;;;26.20;82.00;;;;;;5013500;28;20652;-73
2023/06/23 08:35:37;;;;;;;2.40;2.27;;;26.80;79.40;;;;;;5013441;28;20172;-71
2023/06/23 08:38:05;;;;;;;5.40;2.30;;;27.40;75.80;;;;;;5013417;28;20484;-71
2023/06/23 08:40:30;;;;;;;1.70;1.53;;;27.10;76.20;;;;;;5013477;28;20202;-70
2023/06/23 08:42:57;;;;;;;2.10;1.97;;;26.60;79.60;;;;;;5013287;28;20418;-73
2023/06/23 08:45:24;;;;;;;2.20;2.00;;;25.80;81.20;;;;;;5013614;28;20207;-71
2023/06/23 08:47:53;;;;;;;2.23;1.80;;;24.70;80.30;;;;;;5013437;28;20408;-73
2023/06/23 08:50:20;;;;;;;2.67;2.07;;;23.50;85.50;;;;;;5013422;28;20890;-72
2023/06/23 08:52:46;;;;;;;4.67;2.10;;;22.50;86.10;;;;;;5013102;28;20466;-72
2023/06/23 08:55:12;;;;;;;2.50;1.90;;;22.00;91.50;;;;;;5013534;28;20381;-72
2023/06/23 08:57:39;;;;;;;6.53;2.87;;;21.60;90.00;;;;;;5013835;28;20429;-70
2023/06/23 09:00:07;;;;;;;2.50;2.30;;;21.40;92.20;;;;;;5017239;28;20898;-72
2023/06/23 09:02:33;;;;;;;11.90;3.07;;;21.40;91.70;;;;;;5016946;28;20918;-71
2023/06/23 09:04:59;;;;;;;2.73;1.90;;;22.70;92.70;;;;;;5017070;28;20417;-72
2023/06/23 09:07:26;;;;;;;2.87;1.90;;;24.60;99.50;;;;;;5017083;28;20178;-71
2023/06/23 09:09:52;;;;;;;2.67;2.23;;;24.50;91.70;;;;;;5017218;28;20385;-72
2023/06/23 09:12:21;;;;;;;2.33;2.20;;;26.40;81.60;;;;;;5016634;28;20476;-73
2023/06/23 09:14:51;;;;;;;1.80;1.40;;;27.20;76.60;;;;;;5017089;28;20167;-71
2023/06/23 09:17:21;;;;;;;2.53;2.33;;;28.60;82.10;;;;;;5016934;28;20405;-70
2023/06/23 09:19:49;;;;;;;3.50;1.60;;;28.90;76.60;;;;;;5017069;28;20506;-73
2023/06/23 09:22:18;;;;;;;1.73;1.63;;;29.60;71.20;;;;;;5016784;28;20421;-71
2023/06/23 09:24:44;;;;;;;3.97;2.13;;;30.00;64.50;;;;;;5016937;28;20406;-71
2023/06/23 09:27:10;;;;;;;1.70;1.60;;;30.30;69.40;;;;;;5016848;28;20472;-73
2023/06/23 09:29:37;;;;;;;2.10;1.87;;;30.80;65.30;;;;;;5016518;28;20258;-71
2023/06/23 09:32:03;;;;;;;1.80;1.70;;;30.60;59.30;;;;;;5016377;28;20183;-72
2023/06/23 09:34:31;;;;;;;1.50;1.40;;;31.00;63.90;;;;;;5016624;28;20403;-70
2023/06/23 09:37:14;;;;;;;1.40;1.30;;;31.30;66.30;;;;;;5016592;28;20403;-72
2023/06/23 09:39:41;;;;;;;4.30;2.07;;;31.80;62.90;;;;;;5016509;28;20429;-72
2023/06/23 09:42:11;;;;;;;1.53;1.43;;;32.00;57.30;;;;;;5016267;28;20394;-71
2023/06/23 09:44:40;;;;;;;1.83;1.70;;;31.40;63.50;;;;;;5017153;28;20485;-73
2023/06/23 09:47:06;;;;;;;3.50;2.00;;;31.10;57.50;;;;;;5016431;28;20813;-73
2023/06/23 09:49:46;;;;;;;1.60;1.50;;;30.40;60.40;;;;;;5016253;28;20423;-72
2023/06/23 09:52:13;;;;;;;0.97;0.97;;;29.00;57.80;;;;;;5016085;28;20496;-72
2023/06/23 09:54:40;;;;;;;1.23;1.13;;;28.10;59.50;;;;;;5016308;28;20406;-72
2023/06/23 09:57:13;;;;;;;1.30;1.23;;;26.90;65.60;;;;;;4998564;28;20969;-70
2023/06/23 09:59:40;;;;;;;1.70;1.60;;;27.00;75.70;;;;;;5016170;28;20387;-72
2023/06/23 10:02:07;;;;;;;1.53;1.43;;;28.00;70.10;;;;;;5016125;28;20403;-70
2023/06/23 10:04:33;;;;;;;1.90;1.80;;;29.00;64.40;;;;;;5016149;28;20419;-71
2023/06/23 10:07:20;;;;;;;1.70;1.53;;;29.60;60.90;;;;;;5016054;28;20407;-73
2023/06/23 10:09:55;;;;;;;1.40;1.30;;;29.00;60.20;;;;;;5015780;28;20265;-73
2023/06/23 10:12:22;;;;;;;3.13;1.40;;;28.80;65.90;;;;;;5015693;28;20819;-73
2023/06/23 10:14:49;;;;;;;2.20;2.10;;;29.40;62.00;;;;;;5015968;28;20406;-71
2023/06/23 10:17:15;;;;;;;1.60;1.50;;;28.90;68.00;;;;;;5015908;28;20403;-71
2023/06/23 10:19:42;;;;;;;2.70;1.23;;;29.10;61.30;;;;;;5015697;28;20406;-72
2023/06/23 10:22:10;;;;;;;1.07;1.00;;;28.30;60.00;;;;;;5015460;28;20406;-73
2023/06/23 10:24:36;;;;;;;1.63;1.47;;;28.70;61.30;;;;;;5015647;28;20417;-72
2023/06/23 10:27:05;;;;;;;1.93;1.40;;;29.40;58.90;;;;;;5015624;28;20843;-72
2023/06/23 10:29:34;;;;;;;1.80;1.50;;;30.00;62.80;;;;;;5015604;28;20930;-71
2023/06/23 10:32:00;;;;;;;2.70;0.90;;;29.00;56.90;;;;;;5015422;28;20774;-73
2023/06/23 10:34:28;;;;;;;1.37;1.27;;;27.60;59.50;;;;;;5015350;28;20488;-72
2023/06/23 10:36:59;;;;;;;1.93;1.83;;;26.60;66.20;;;;;;5015376;28;20382;-73
2023/06/23 10:39:29;;;;;;;1.53;1.33;;;25.80;65.10;;;;;;5015621;28;20915;-72
2023/06/23 10:41:58;;;;;;;1.30;1.20;;;25.20;65.10;;;;;;5015152;28;20402;-72
2023/06/23 10:44:24;;;;;;;2.23;2.07;;;25.50;71.60;;;;;;5015448;28;20480;-71
2023/06/23 10:46:50;;;;;;;1.87;1.30;;;26.00;65.80;;;;;;5015323;28;20369;-70
2023/06/23 10:49:16;;;;;;;1.20;0.90;;;25.90;65.30;;;;;;5015114;28;20426;-71
2023/06/23 10:51:44;;;;;;;1.40;1.30;;;25.50;63.10;;;;;;5014975;28;20385;-69
2023/06/23 10:54:10;;;;;;;1.43;1.33;;;25.30;64.10;;;;;;5015094;28;20449;-71
2023/06/23 10:56:43;;;;;;;2.27;1.77;;;24.80;69.00;;;;;;5015160;28;20960;-73
2023/06/23 10:59:20;;;;;;;2.10;1.43;;;25.00;71.70;;;;;;5014933;28;20429;-71
2023/06/23 11:02:00;;;;;;;1.57;1.20;;;25.40;73.10;;;;;;5014862;28;20403;-72
2023/06/23 11:04:27;;;;;;;1.90;1.20;;;25.80;66.90;;;;;;4997373;28;20412;-73
2023/06/23 11:07:10;;;;;;;1.17;1.07;;;25.90;63.50;;;;;;4997394;28;20419;-70
2023/06/23 11:09:44;;;;;;;1.83;1.73;;;25.40;67.30;;;;;;5014571;28;20446;-71
2023/06/23 11:12:45;;;;;;;0.97;0.97;;;24.70;71.60;;;;;;5014688;28;20377;-71
2023/06/23 11:15:15;;;;;;;0.60;0.60;;;24.40;74.20;;;;;;5014977;28;20735;-72
2023/06/23 11:17:43;;;;;;;0.90;0.90;;;24.30;75.00;;;;;;5014821;28;20897;-71
2023/06/23 11:20:10;;;;;;;0.80;0.73;;;24.30;71.80;;;;;;5014200;28;20437;-73
2023/06/23 11:22:40;;;;;;;1.60;0.80;;;24.50;69.60;;;;;;5014372;28;20475;-73
2023/06/23 11:25:06;;;;;;;0.73;0.73;;;24.90;76.00;;;;;;5014732;28;20377;-71
2023/06/23 11:27:32;;;;;;;1.70;1.33;;;25.20;91.00;;;;;;5014615;28;20414;-71
2023/06/23 11:30:17;;;;;;;1.70;1.60;;;25.30;73.50;;;;;;5014489;28;20789;-73
2023/06/23 11:32:43;;;;;;;1.80;1.43;;;25.30;69.00;;;;;;5014127;28;20199;-72
2023/06/23 11:35:09;;;;;;;1.47;1.37;;;25.20;67.40;;;;;;5014921;28;20426;-72
2023/06/23 11:37:36;;;;;;;0.90;0.90;;;25.20;70.80;;;;;;5014260;28;20426;-72
2023/06/23 11:40:04;;;;;;;1.03;1.03;;;25.00;68.70;;;;;;5014441;28;20485;-72
2023/06/23 11:42:29;;;;;;;1.07;0.97;;;25.20;68.00;;;;;;5014158;28;20391;-73
2023/06/23 11:44:56;;;;;;;1.00;1.00;;;25.20;63.10;;;;;;5014351;28;20904;-72
2023/06/23 11:47:27;;;;;;;1.00;0.90;;;24.80;77.10;;;;;;5014260;28;20179;-72
2023/06/23 11:49:54;;;;;;;1.33;1.23;;;24.40;66.40;;;;;;5014091;28;20489;-71
2023/06/23 11:52:20;;;;;;;1.00;1.00;;;24.00;70.40;;;;;;5013921;28;20473;-70
2023/06/23 11:54:48;;;;;;;1.20;0.70;;;23.70;68.20;;;;;;5014137;28;20494;-71
2023/06/23 11:57:20;;;;;;;1.30;1.20;;;24.30;83.40;;;;;;5014027;28;20907;-70
2023/06/23 11:59:46;;;;;;;1.30;0.90;;;24.20;66.00;;;;;;5014052;28;20720;-71
2023/06/23 12:02:11;;;;;;;1.17;1.00;;;24.10;66.30;;;;;;5013964;28;20414;-73
2023/06/23 12:04:39;;;;;;;0.90;0.60;;;24.30;65.50;;;;;;5014309;28;20403;-71
2023/06/23 12:07:04;;;;;;;1.10;0.93;;;24.30;69.70;;;;;;5014079;28;20171;-72
2023/06/23 12:09:31;;;;;;;1.20;1.00;;;24.50;64.60;;;;;;5013668;28;20438;-72
2023/06/23 12:11:58;;;;;;;2.20;1.33;;;24.50;67.40;;;;;;5013619;28;20168;-72
2023/06/23 12:14:31;;;;;;;2.47;1.97;;;24.50;67.10;;;;;;5013629;28;20407;-72
2023/06/23 12:17:07;;;;;;;1.63;1.40;;;24.50;70.30;;;;;;5013795;28;20485;-71
2023/06/23 12:19:34;;;;;;;1.30;1.20;;;24.70;66.60;;;;;;5013712;28;20404;-72
2023/06/23 12:22:01;;;;;;;0.73;0.73;;;24.90;68.60;;;;;;5013576;28;20434;-71
2023/06/23 12:24:30;;;;;;;1.57;1.47;;;25.10;65.80;;;;;;5013891;28;20823;-72
2023/06/23 12:26:57;;;;;;;1.77;1.67;;;25.10;66.00;;;;;;5013796;28;20375;-72
2023/06/23 12:29:23;;;;;;;1.27;1.17;;;25.10;66.20;;;;;;5013551;28;20424;-70
2023/06/23 12:31:54;;;;;;;1.20;1.10;;;25.00;64.40;;;;;;5012945;28;20443;-72
2023/06/23 12:34:20;;;;;;;0.80;0.80;;;24.70;62.50;;;;;;5013353;28;20450;-73
2023/06/23 12:36:47;;;;;;;1.23;1.10;;;24.50;67.60;;;;;;5013676;28;20410;-70
2023/06/23 12:39:15;;;;;;;1.40;1.17;;;24.40;67.50;;;;;;5013468;28;20191;-72
2023/06/23 12:41:41;;;;;;;0.90;0.83;;;24.60;65.60;;;;;;5013494;28;20373;-71
2023/06/23 12:44:06;;;;;;;1.23;1.13;;;24.70;61.50;;;;;;5013502;28;20433;-72
2023/06/23 12:46:33;;;;;;;1.23;1.10;;;24.70;62.30;;;;;;5013530;28;20541;-71
2023/06/23 12:48:58;;;;;;;1.10;1.10;;;24.40;64.10;;;;;;5013396;28;20187;-73
2023/06/23 12:51:35;;;;;;;1.10;1.00;;;24.30;65.10;;;;;;5013449;28;20430;-72
2023/06/23 12:54:01;;;;;;;0.83;0.83;;;24.40;66.10;;;;;;5013418;28;20548;-73
2023/06/23 12:56:28;;;;;;;1.20;0.77;;;24.20;64.10;;;;;;5013368;28;20403;-71